Aérodrome :
LOGIN :

S'inscrire | Disclaimer

   EN    FR    IT 

 










Légende :    VFR   VFR Marginal   IFR   IFR Intensif   IFR Très Intensif
Visi : 
Plafond : 
>= 8 km
>= 3000ft
5 à 8 km
1000 à 3000 ft
1500m à 5 km
500 à 1000 ft
800 à 1500m
200 à 500 ft
< 800m
< 200 ft
Symboles :   Orages  Brouillard  Fortes neiges  Fortes précipitations  Vent > 20 kt
SIGMETs :   Divers  Orages  Givrage  Turbulence  Onde Orograph.  Cendres Volcan.







- Altitude de l'aérodrome : 37 ft


EHVL - Vlieland Heliport

DERNIER METAR :
  • 190955Z AUTO 32027KT 9000 HZ SCT028 SCT032 09/04 Q1014 BLU

METARs EXPIRÉS :
  • 190925Z AUTO 33028KT 9000 HZ SCT028 BKN031 09/04 Q1014 BLU
  • 190905Z AUTO 32029KT 9999 FEW067 09/04 Q1014 BLU
  • 190855Z AUTO 33032G43KT 8000 -RADZ FEW002 SCT027 BKN036 08/04 Q1013 BLU
  • 190825Z AUTO 33031KT 9999 SCT029 09/04 Q1013 BLU
  • 190818Z AUTO 33030KT 9999 FEW030 09/04 Q1013 BLU
  • 190808Z AUTO 32025G38KT 8000 HZ FEW001 FEW015CB SCT034 BKN040 08/05 Q1013 BLU
  • 190804Z AUTO 32031G42KT 8000 -RA SCT001 FEW015CB SCT022 BKN033 08/05 Q1013 RED
  • 190800Z AUTO 33032G42KT 7000 -RA FEW001 FEW015CB SCT022 BKN027 08/04 Q1013 WHT
  • 190745Z AUTO 32031KT 9000 HZ FEW018CB BKN028 BKN036 09/04 Q1013 BLU
  • 190741Z AUTO 32031KT 9000 HZ FEW001 SCT024 BKN029 09/05 Q1013 WHT
  • 190730Z AUTO 32029KT 8000 HZ FEW015CB SCT022 BKN031 09/05 Q1013 WHT

Prévision TAF périmée.
Pas de NOTAMs connus pour ce terrain.



MET'MAP, la Météo Aéronautique d'un coup d'oeil ! - Copyright ORBIFLY Décembre 2007 - Disclaimer

ORBIFLY MET'MAP TEAM :

Programmation & Développement : Alexandra Zaïnal
Conception & Développement : Baudouin d'Aumeries
Co-Programmation & Développement : Marc-Olivier Méhu
Soutien technique & logistique : Manuel Goepfert

Contact : metmap@orbifly.com




SOURCES & CREDITS :

   NOAA